Time,TemperatureF,DewpointF,PressureIn,WindDirection,WindDirectionDegrees,WindSpeedMPH,WindSpeedGustMPH,Humidity,HourlyPrecipIn,Conditions,Clouds,dailyrainin,SoftwareType,DateUTC
2013-01-07 00:00:00,40.4,-99.9,29.95,ENE,78,0.0,0.0,-999,0.01,,,0.00,homebrew,2013-01-07 08:00:00,
2013-01-07 00:05:00,40.2,-99.9,29.95,ENE,78,0.0,0.0,-999,0.02,,,0.01,homebrew,2013-01-07 08:05:00,
2013-01-07 00:10:00,40.1,-99.9,29.95,ENE,78,0.0,0.0,-999,0.03,,,0.02,homebrew,2013-01-07 08:10:00,
2013-01-07 00:15:00,40.1,-99.9,29.94,ENE,78,0.0,0.0,-999,0.03,,,0.02,homebrew,2013-01-07 08:15:00,
2013-01-07 00:20:00,40.0,-99.9,29.94,ENE,78,0.0,0.0,-999,0.04,,,0.03,homebrew,2013-01-07 08:20:00,
2013-01-07 00:30:00,39.9,-99.9,29.93,ENE,78,0.0,0.0,-999,0.05,,,0.04,homebrew,2013-01-07 08:30:00,
2013-01-07 00:35:00,40.0,-99.9,29.93,ENE,78,0.0,0.0,-999,0.04,,,0.04,homebrew,2013-01-07 08:35:00,
2013-01-07 00:40:00,39.9,-99.9,29.93,ENE,74,0.1,0.0,-999,0.04,,,0.04,homebrew,2013-01-07 08:40:00,
2013-01-07 00:45:00,39.9,-99.9,29.94,NE,50,0.0,1.9,-999,0.04,,,0.04,homebrew,2013-01-07 08:45:00,
2013-01-07 00:50:00,40.0,-99.9,29.93,NE,50,0.0,0.0,-999,0.04,,,0.04,homebrew,2013-01-07 08:50:00,
2013-01-07 01:00:00,40.0,-99.9,29.92,NE,50,0.0,0.0,-999,0.04,,,0.05,homebrew,2013-01-07 09:00:00,
2013-01-07 01:05:00,40.2,-99.9,29.92,East,88,0.2,2.2,-999,0.05,,,0.06,homebrew,2013-01-07 09:05:00,
2013-01-07 01:10:00,40.1,-99.9,29.92,ESE,105,0.0,0.0,-999,0.04,,,0.06,homebrew,2013-01-07 09:10:00,
2013-01-07 01:20:00,40.3,-99.9,29.92,ESE,105,0.0,0.0,-999,0.03,,,0.06,homebrew,2013-01-07 09:20:00,
2013-01-07 01:25:00,40.4,-99.9,29.92,ESE,105,0.0,0.0,-999,0.03,,,0.06,homebrew,2013-01-07 09:25:00,
2013-01-07 01:35:00,40.4,-99.9,29.92,ESE,105,0.0,0.0,-999,0.03,,,0.07,homebrew,2013-01-07 09:35:00,
2013-01-07 01:40:00,40.4,-99.9,29.92,ESE,105,0.0,0.0,-999,0.04,,,0.08,homebrew,2013-01-07 09:40:00,
2013-01-07 01:45:00,40.5,-99.9,29.92,ESE,105,0.0,0.0,-999,0.04,,,0.08,homebrew,2013-01-07 09:45:00,
2013-01-07 01:50:00,40.5,-99.9,29.92,ESE,105,0.0,0.0,-999,0.03,,,0.08,homebrew,2013-01-07 09:50:00,
2013-01-07 01:55:00,40.7,-99.9,29.92,ESE,105,0.0,0.0,-999,0.04,,,0.09,homebrew,2013-01-07 09:55:00,
2013-01-07 02:00:00,40.6,-99.9,29.92,ESE,105,0.0,0.0,-999,0.05,,,0.10,homebrew,2013-01-07 10:00:00,
2013-01-07 02:10:00,40.8,-99.9,29.91,ESE,105,0.0,0.0,-999,0.06,,,0.12,homebrew,2013-01-07 10:10:00,
2013-01-07 02:15:00,41.0,-99.9,29.90,ESE,105,0.0,0.0,-999,0.06,,,0.12,homebrew,2013-01-07 10:15:00,
2013-01-07 02:25:00,41.2,-99.9,29.90,SSE,151,0.6,4.3,-999,0.06,,,0.12,homebrew,2013-01-07 10:25:00,
2013-01-07 02:30:00,41.4,-99.9,29.90,SE,132,0.0,3.9,-999,0.05,,,0.12,homebrew,2013-01-07 10:30:00,
2013-01-07 02:40:00,41.8,-99.9,29.89,South,169,0.6,4.6,-999,0.05,,,0.13,homebrew,2013-01-07 10:40:00,
2013-01-07 02:45:00,41.9,-99.9,29.89,South,175,0.0,4.0,-999,0.05,,,0.13,homebrew,2013-01-07 10:45:00,
2013-01-07 02:50:00,42.0,-99.9,29.89,SE,139,0.0,0.9,-999,0.04,,,0.13,homebrew,2013-01-07 10:50:00,
2013-01-07 02:55:00,42.0,-99.9,29.89,ESE,123,0.0,0.0,-999,0.04,,,0.13,homebrew,2013-01-07 10:55:00,
2013-01-07 03:00:00,42.1,-99.9,29.88,ESE,123,0.0,0.0,-999,0.03,,,0.13,homebrew,2013-01-07 11:00:00,
2013-01-07 03:05:00,42.1,-99.9,29.88,SE,143,0.2,0.0,-999,0.02,,,0.13,homebrew,2013-01-07 11:05:00,
2013-01-07 03:15:00,42.4,-99.9,29.88,ENE,73,0.3,3.9,-999,0.01,,,0.13,homebrew,2013-01-07 11:15:00,
2013-01-07 03:20:00,42.5,-99.9,29.87,ESE,113,0.9,0.0,-999,0.01,,,0.13,homebrew,2013-01-07 11:20:00,
2013-01-07 03:30:00,42.7,-99.9,29.87,South,174,0.8,0.0,-999,0.00,,,0.13,homebrew,2013-01-07 11:30:00,
2013-01-07 03:35:00,43.0,-99.9,29.87,South,175,2.7,7.3,-999,0.00,,,0.13,homebrew,2013-01-07 11:35:00,
2013-01-07 03:45:00,43.2,-99.9,29.86,SSE,164,1.5,4.8,-999,0.00,,,0.13,homebrew,2013-01-07 11:45:00,
2013-01-07 03:50:00,43.3,-99.9,29.86,SE,142,0.7,5.0,-999,0.00,,,0.13,homebrew,2013-01-07 11:50:00,
2013-01-07 04:00:00,43.4,-99.9,29.86,SSW,192,3.3,7.8,-999,0.00,,,0.13,homebrew,2013-01-07 12:00:00,
2013-01-07 04:05:00,43.5,-99.9,29.85,SSE,159,1.4,11.4,-999,0.00,,,0.13,homebrew,2013-01-07 12:05:00,
2013-01-07 04:10:00,43.4,-99.9,29.85,South,186,2.8,5.8,-999,0.00,,,0.13,homebrew,2013-01-07 12:10:00,
2013-01-07 04:15:00,43.6,-99.9,29.85,South,189,2.5,8.6,-999,0.00,,,0.13,homebrew,2013-01-07 12:15:00,
2013-01-07 04:25:00,43.7,-99.9,29.85,SSW,196,2.4,5.7,-999,0.00,,,0.13,homebrew,2013-01-07 12:25:00,
2013-01-07 04:35:00,43.6,-99.9,29.85,SSW,203,1.6,5.5,-999,0.00,,,0.13,homebrew,2013-01-07 12:35:00,
2013-01-07 04:40:00,43.6,-99.9,29.84,South,186,2.0,6.5,-999,0.00,,,0.13,homebrew,2013-01-07 12:40:00,
2013-01-07 04:45:00,43.5,-99.9,29.84,South,191,1.7,7.4,-999,0.00,,,0.13,homebrew,2013-01-07 12:45:00,
2013-01-07 04:50:00,43.5,-99.9,29.83,SSW,196,2.7,6.7,-999,0.00,,,0.13,homebrew,2013-01-07 12:50:00,
2013-01-07 04:55:00,43.4,-99.9,29.82,SSE,161,1.8,6.8,-999,0.00,,,0.13,homebrew,2013-01-07 12:55:00,
2013-01-07 05:00:00,43.5,-99.9,29.82,South,177,2.5,10.1,-999,0.00,,,0.13,homebrew,2013-01-07 13:00:00,
2013-01-07 05:10:00,43.5,-99.9,29.81,South,169,2.3,7.1,-999,0.00,,,0.13,homebrew,2013-01-07 13:10:00,
2013-01-07 05:15:00,43.5,-99.9,29.81,South,187,3.2,11.9,-999,0.00,,,0.13,homebrew,2013-01-07 13:15:00,
2013-01-07 05:25:00,43.5,-99.9,29.81,South,189,1.8,5.7,-999,0.00,,,0.13,homebrew,2013-01-07 13:25:00,
2013-01-07 05:30:00,43.5,-99.9,29.80,South,188,3.0,7.8,-999,0.00,,,0.13,homebrew,2013-01-07 13:30:00,
2013-01-07 05:35:00,43.6,-99.9,29.80,South,190,4.3,10.7,-999,0.00,,,0.13,homebrew,2013-01-07 13:35:00,
2013-01-07 05:40:00,43.7,-99.9,29.80,SSW,192,2.8,8.8,-999,0.00,,,0.13,homebrew,2013-01-07 13:40:00,
2013-01-07 05:45:00,43.7,-99.9,29.80,SSW,198,3.9,9.6,-999,0.00,,,0.13,homebrew,2013-01-07 13:45:00,
2013-01-07 05:50:00,43.9,-99.9,29.80,SSW,206,3.7,11.4,-999,0.00,,,0.13,homebrew,2013-01-07 13:50:00,
2013-01-07 06:00:00,44.1,-99.9,29.80,SSW,200,3.8,9.2,-999,0.00,,,0.13,homebrew,2013-01-07 14:00:00,
2013-01-07 06:05:00,44.1,-99.9,29.81,South,186,2.9,8.2,-999,0.00,,,0.13,homebrew,2013-01-07 14:05:00,
2013-01-07 06:15:00,44.3,-99.9,29.81,SSW,200,4.2,9.8,-999,0.00,,,0.13,homebrew,2013-01-07 14:15:00,
2013-01-07 06:20:00,44.3,-99.9,29.81,SSW,192,3.9,11.2,-999,0.00,,,0.13,homebrew,2013-01-07 14:20:00,
2013-01-07 06:25:00,44.2,-99.9,29.81,SSW,197,3.8,9.5,-999,0.00,,,0.13,homebrew,2013-01-07 14:25:00,
2013-01-07 06:30:00,44.1,-99.9,29.80,SSW,200,2.8,9.3,-999,0.00,,,0.13,homebrew,2013-01-07 14:30:00,
2013-01-07 06:35:00,44.1,-99.9,29.81,SSW,198,3.7,9.3,-999,0.00,,,0.13,homebrew,2013-01-07 14:35:00,
2013-01-07 06:40:00,44.1,-99.9,29.81,SSW,193,3.5,9.2,-999,0.01,,,0.14,homebrew,2013-01-07 14:40:00,
2013-01-07 06:50:00,44.2,-99.9,29.80,SSW,198,3.2,8.5,-999,0.01,,,0.14,homebrew,2013-01-07 14:50:00,
2013-01-07 06:55:00,44.2,-99.9,29.80,SSW,199,4.4,13.7,-999,0.01,,,0.14,homebrew,2013-01-07 14:55:00,
2013-01-07 07:05:00,44.4,-99.9,29.79,South,191,4.1,10.9,-999,0.01,,,0.14,homebrew,2013-01-07 15:05:00,
2013-01-07 07:10:00,44.5,-99.9,29.79,South,188,4.0,10.5,-999,0.01,,,0.14,homebrew,2013-01-07 15:10:00,
2013-01-07 07:20:00,44.8,-99.9,29.80,South,189,4.2,14.9,-999,0.01,,,0.14,homebrew,2013-01-07 15:20:00,
2013-01-07 07:25:00,44.9,-99.9,29.80,SSW,195,4.2,9.8,-999,0.01,,,0.14,homebrew,2013-01-07 15:25:00,
2013-01-07 07:30:00,45.1,-99.9,29.79,South,189,5.6,11.6,-999,0.01,,,0.14,homebrew,2013-01-07 15:30:00,
2013-01-07 07:40:00,45.8,-99.9,29.79,SSW,198,5.9,14.7,-999,0.00,,,0.14,homebrew,2013-01-07 15:40:00,
2013-01-07 07:45:00,45.8,-99.9,29.78,SSW,195,5.7,12.2,-999,0.00,,,0.14,homebrew,2013-01-07 15:45:00,
2013-01-07 07:55:00,46.2,-99.9,29.77,SSW,192,7.0,22.0,-999,0.00,,,0.14,homebrew,2013-01-07 15:55:00,
2013-01-07 08:00:00,46.2,-99.9,29.76,South,191,7.2,16.9,-999,0.00,,,0.14,homebrew,2013-01-07 16:00:00,
2013-01-07 08:10:00,46.4,-99.9,29.77,SSW,192,6.6,17.6,-999,0.00,,,0.14,homebrew,2013-01-07 16:10:00,
2013-01-07 08:15:00,46.7,-99.9,29.77,SSW,197,8.0,23.3,-999,0.00,,,0.14,homebrew,2013-01-07 16:15:00,
2013-01-07 08:20:00,46.9,-99.9,29.77,SSW,200,7.3,22.2,-999,0.00,,,0.14,homebrew,2013-01-07 16:20:00,
2013-01-07 08:30:00,47.1,-99.9,29.78,SSW,193,7.2,23.9,-999,0.00,,,0.14,homebrew,2013-01-07 16:30:00,
2013-01-07 08:35:00,47.1,-99.9,29.78,SSW,195,6.4,19.8,-999,0.00,,,0.14,homebrew,2013-01-07 16:35:00,
2013-01-07 08:45:00,47.1,-99.9,29.79,SSW,193,6.6,14.7,-999,0.00,,,0.14,homebrew,2013-01-07 16:45:00,
2013-01-07 08:50:00,47.3,-99.9,29.79,SSW,196,6.7,23.2,-999,0.00,,,0.14,homebrew,2013-01-07 16:50:00,
2013-01-07 09:00:00,47.5,-99.9,29.79,South,186,6.8,16.7,-999,0.00,,,0.14,homebrew,2013-01-07 17:00:00,
2013-01-07 09:05:00,47.6,-99.9,29.79,SSW,200,6.5,17.8,-999,0.00,,,0.14,homebrew,2013-01-07 17:05:00,
2013-01-07 09:10:00,47.7,-99.9,29.80,SSW,194,5.2,18.1,-999,0.00,,,0.14,homebrew,2013-01-07 17:10:00,
2013-01-07 09:20:00,47.8,-99.9,29.81,South,187,7.2,14.5,-999,0.00,,,0.14,homebrew,2013-01-07 17:20:00,
2013-01-07 09:25:00,47.8,-99.9,29.81,SSW,197,5.9,18.7,-999,0.00,,,0.14,homebrew,2013-01-07 17:25:00,
2013-01-07 09:35:00,47.6,-99.9,29.81,SSW,197,5.8,15.0,-999,0.00,,,0.14,homebrew,2013-01-07 17:35:00,
2013-01-07 09:40:00,47.7,-99.9,29.82,SSW,193,6.4,14.2,-999,0.00,,,0.14,homebrew,2013-01-07 17:40:00,
2013-01-07 09:45:00,47.7,-99.9,29.82,SSW,198,5.6,13.3,-999,0.00,,,0.14,homebrew,2013-01-07 17:45:00,
2013-01-07 09:50:00,47.6,-99.9,29.82,SSW,196,5.1,13.0,-999,0.00,,,0.14,homebrew,2013-01-07 17:50:00,
2013-01-07 09:55:00,47.5,-99.9,29.83,SSW,194,6.3,13.0,-999,0.00,,,0.14,homebrew,2013-01-07 17:55:00,
2013-01-07 10:00:00,47.5,-99.9,29.83,SSW,199,5.0,14.9,-999,0.00,,,0.14,homebrew,2013-01-07 18:00:00,
2013-01-07 10:10:00,47.5,-99.9,29.83,SSW,195,5.3,15.2,-999,0.00,,,0.14,homebrew,2013-01-07 18:10:00,
2013-01-07 10:20:00,47.6,-99.9,29.84,South,180,3.2,12.8,-999,0.00,,,0.14,homebrew,2013-01-07 18:20:00,
2013-01-07 10:25:00,47.6,-99.9,29.85,SSW,193,5.7,14.7,-999,0.00,,,0.14,homebrew,2013-01-07 18:25:00,
2013-01-07 10:30:00,47.7,-99.9,29.85,SSW,196,4.3,14.8,-999,0.00,,,0.14,homebrew,2013-01-07 18:30:00,
2013-01-07 10:35:00,47.8,-99.9,29.85,SSW,195,4.9,14.7,-999,0.00,,,0.14,homebrew,2013-01-07 18:35:00,
2013-01-07 10:40:00,47.9,-99.9,29.86,SSW,198,3.8,10.3,-999,0.00,,,0.14,homebrew,2013-01-07 18:40:00,
2013-01-07 10:45:00,47.9,-99.9,29.85,SSW,200,4.9,12.9,-999,0.00,,,0.14,homebrew,2013-01-07 18:45:00,
2013-01-07 10:50:00,47.9,-99.9,29.86,SSW,202,5.5,11.3,-999,0.00,,,0.14,homebrew,2013-01-07 18:50:00,
2013-01-07 11:00:00,48.1,-99.9,29.86,SSW,205,5.5,11.0,-999,0.00,,,0.14,homebrew,2013-01-07 19:00:00,
2013-01-07 11:05:00,48.1,-99.9,29.86,SSW,198,4.1,14.5,-999,0.00,,,0.14,homebrew,2013-01-07 19:05:00,
2013-01-07 11:15:00,48.1,-99.9,29.86,SSW,211,3.1,10.2,-999,0.00,,,0.14,homebrew,2013-01-07 19:15:00,
2013-01-07 11:20:00,48.2,-99.9,29.86,SSW,204,4.6,8.2,-999,0.00,,,0.14,homebrew,2013-01-07 19:20:00,
2013-01-07 11:25:00,48.3,-99.9,29.86,SSW,204,5.3,14.5,-999,0.00,,,0.14,homebrew,2013-01-07 19:25:00,
2013-01-07 11:30:00,48.4,-99.9,29.85,SSW,192,5.9,17.3,-999,0.00,,,0.14,homebrew,2013-01-07 19:30:00,
2013-01-07 11:35:00,48.5,-99.9,29.84,South,190,5.0,20.8,-999,0.00,,,0.14,homebrew,2013-01-07 19:35:00,
2013-01-07 11:40:00,48.5,-99.9,29.85,SSW,199,5.9,13.4,-999,0.00,,,0.14,homebrew,2013-01-07 19:40:00,
2013-01-07 11:50:00,48.8,-99.9,29.86,SSW,200,6.3,10.7,-999,0.00,,,0.14,homebrew,2013-01-07 19:50:00,
2013-01-07 11:55:00,49.0,-99.9,29.86,SSW,198,7.5,13.3,-999,0.00,,,0.14,homebrew,2013-01-07 19:55:00,
2013-01-07 12:05:00,49.0,-99.9,29.86,SSW,204,5.8,15.2,-999,0.00,,,0.14,homebrew,2013-01-07 20:05:00,
2013-01-07 12:10:00,49.0,-99.9,29.85,SSW,192,7.0,18.5,-999,0.00,,,0.14,homebrew,2013-01-07 20:10:00,
2013-01-07 12:15:00,49.0,-99.9,29.86,SSW,199,5.8,19.2,-999,0.00,,,0.14,homebrew,2013-01-07 20:15:00,
2013-01-07 12:20:00,49.1,-99.9,29.86,SSW,196,5.6,16.8,-999,0.00,,,0.14,homebrew,2013-01-07 20:20:00,
2013-01-07 12:25:00,49.1,-99.9,29.86,SSW,198,5.3,13.5,-999,0.00,,,0.14,homebrew,2013-01-07 20:25:00,
2013-01-07 12:35:00,49.2,-99.9,29.86,SSW,199,5.7,15.9,-999,0.00,,,0.14,homebrew,2013-01-07 20:35:00,
2013-01-07 12:40:00,49.3,-99.9,29.87,SSW,201,5.9,14.7,-999,0.00,,,0.14,homebrew,2013-01-07 20:40:00,
2013-01-07 12:45:00,49.3,-99.9,29.87,SSW,201,7.1,18.6,-999,0.00,,,0.14,homebrew,2013-01-07 20:45:00,
2013-01-07 12:55:00,49.4,-99.9,29.88,SSW,208,6.4,12.9,-999,0.00,,,0.14,homebrew,2013-01-07 20:55:00,
2013-01-07 13:00:00,49.4,-99.9,29.87,SSW,205,6.3,18.2,-999,0.00,,,0.14,homebrew,2013-01-07 21:00:00,
2013-01-07 13:05:00,49.5,-99.9,29.88,SSW,196,5.4,18.5,-999,0.00,,,0.14,homebrew,2013-01-07 21:05:00,
2013-01-07 13:15:00,49.5,-99.9,29.89,SSW,203,7.2,13.0,-999,0.00,,,0.14,homebrew,2013-01-07 21:15:00,
2013-01-07 13:20:00,49.6,-99.9,29.89,SSW,199,5.1,17.0,-999,0.00,,,0.14,homebrew,2013-01-07 21:20:00,
2013-01-07 13:30:00,49.5,-99.9,29.89,SSW,204,6.2,17.6,-999,0.00,,,0.14,homebrew,2013-01-07 21:30:00,
2013-01-07 13:35:00,49.5,-99.9,29.91,SSW,205,6.5,17.7,-999,0.00,,,0.14,homebrew,2013-01-07 21:35:00,
2013-01-07 13:40:00,49.6,-99.9,29.91,SSW,203,6.1,14.9,-999,0.00,,,0.14,homebrew,2013-01-07 21:40:00,
2013-01-07 13:45:00,49.7,-99.9,29.91,SSW,197,5.5,16.7,-999,0.00,,,0.14,homebrew,2013-01-07 21:45:00,
2013-01-07 13:50:00,49.7,-99.9,29.92,SSW,206,6.1,15.5,-999,0.00,,,0.14,homebrew,2013-01-07 21:50:00,
2013-01-07 13:55:00,49.7,-99.9,29.92,SSW,202,6.0,14.7,-999,0.00,,,0.14,homebrew,2013-01-07 21:55:00,
2013-01-07 14:00:00,49.7,-99.9,29.92,SSW,206,6.0,13.7,-999,0.00,,,0.14,homebrew,2013-01-07 22:00:00,
2013-01-07 14:05:00,49.7,-99.9,29.93,SSW,205,5.9,20.8,-999,0.00,,,0.14,homebrew,2013-01-07 22:05:00,
2013-01-07 14:15:00,49.7,-99.9,29.93,SSW,207,6.7,17.7,-999,0.00,,,0.14,homebrew,2013-01-07 22:15:00,
2013-01-07 14:20:00,49.7,-99.9,29.93,SSW,203,5.0,14.2,-999,0.00,,,0.14,homebrew,2013-01-07 22:20:00,
2013-01-07 14:25:00,49.6,-99.9,29.94,SSW,202,5.8,18.7,-999,0.00,,,0.14,homebrew,2013-01-07 22:25:00,
2013-01-07 14:30:00,49.5,-99.9,29.94,SSW,211,6.3,11.9,-999,0.00,,,0.14,homebrew,2013-01-07 22:30:00,
2013-01-07 14:35:00,49.5,-99.9,29.94,SSW,211,6.8,17.4,-999,0.00,,,0.14,homebrew,2013-01-07 22:35:00,
2013-01-07 14:40:00,49.4,-99.9,29.94,SSW,204,6.3,25.1,-999,0.00,,,0.14,homebrew,2013-01-07 22:40:00,
2013-01-07 14:45:00,49.3,-99.9,29.93,SSW,204,5.9,18.0,-999,0.00,,,0.14,homebrew,2013-01-07 22:45:00,
2013-01-07 14:55:00,49.2,-99.9,29.94,SSW,205,5.8,12.5,-999,0.00,,,0.14,homebrew,2013-01-07 22:55:00,
2013-01-07 15:00:00,49.2,-99.9,29.94,SSW,206,7.6,18.1,-999,0.00,,,0.14,homebrew,2013-01-07 23:00:00,
2013-01-07 15:10:00,49.0,-99.9,29.94,SSW,212,6.5,20.8,-999,0.00,,,0.14,homebrew,2013-01-07 23:10:00,
2013-01-07 15:15:00,49.1,-99.9,29.95,SSW,209,5.8,14.9,-999,0.00,,,0.14,homebrew,2013-01-07 23:15:00,
2013-01-07 15:25:00,48.9,-99.9,29.95,SSW,213,7.1,16.6,-999,0.00,,,0.14,homebrew,2013-01-07 23:25:00,
2013-01-07 15:30:00,48.9,-99.9,29.96,SSW,208,6.2,17.4,-999,0.00,,,0.14,homebrew,2013-01-07 23:30:00,
2013-01-07 15:40:00,48.8,-99.9,29.97,SW,218,6.5,19.1,-999,0.00,,,0.14,homebrew,2013-01-07 23:40:00,
2013-01-07 15:45:00,48.8,-99.9,29.97,SSW,200,5.1,15.2,-999,0.00,,,0.14,homebrew,2013-01-07 23:45:00,
2013-01-07 15:50:00,48.7,-99.9,29.98,SSW,212,6.0,16.1,-999,0.00,,,0.14,homebrew,2013-01-07 23:50:00,
2013-01-07 16:00:00,48.5,-99.9,29.98,SSW,209,5.7,23.4,-999,0.00,,,0.14,homebrew,2013-01-08 00:00:00,
2013-01-07 16:05:00,48.5,-99.9,29.99,SW,218,5.9,16.0,-999,0.00,,,0.14,homebrew,2013-01-08 00:05:00,
2013-01-07 16:10:00,48.5,-99.9,29.99,SW,214,6.1,12.6,-999,0.00,,,0.14,homebrew,2013-01-08 00:10:00,
2013-01-07 16:15:00,48.4,-99.9,29.99,SW,222,6.4,16.4,-999,0.00,,,0.14,homebrew,2013-01-08 00:15:00,
2013-01-07 16:20:00,48.4,-99.9,29.99,SW,217,6.2,14.3,-999,0.00,,,0.14,homebrew,2013-01-08 00:20:00,
2013-01-07 16:25:00,48.4,-99.9,29.99,SW,217,6.0,19.3,-999,0.00,,,0.14,homebrew,2013-01-08 00:25:00,
2013-01-07 16:35:00,48.3,-99.9,29.99,SW,216,6.5,12.7,-999,0.00,,,0.14,homebrew,2013-01-08 00:35:00,
2013-01-07 16:40:00,48.3,-99.9,29.99,SW,219,5.8,14.4,-999,0.00,,,0.14,homebrew,2013-01-08 00:40:00,
2013-01-07 16:50:00,48.1,-99.9,30.00,SW,215,5.5,13.5,-999,0.00,,,0.14,homebrew,2013-01-08 00:50:00,
2013-01-07 16:55:00,48.1,-99.9,30.01,SSW,213,5.7,14.7,-999,0.00,,,0.14,homebrew,2013-01-08 00:55:00,
2013-01-07 17:00:00,48.1,-99.9,30.01,SW,217,6.0,13.8,-999,0.00,,,0.14,homebrew,2013-01-08 01:00:00,
2013-01-07 17:05:00,48.0,-99.9,30.01,SSW,211,5.2,14.3,-999,0.00,,,0.14,homebrew,2013-01-08 01:05:00,
2013-01-07 17:10:00,47.9,-99.9,30.01,SW,216,5.7,11.7,-999,0.00,,,0.14,homebrew,2013-01-08 01:10:00,
2013-01-07 17:15:00,47.9,-99.9,30.01,SSW,205,3.9,12.1,-999,0.00,,,0.14,homebrew,2013-01-08 01:15:00,
2013-01-07 17:25:00,47.8,-99.9,30.02,SSW,211,3.8,15.8,-999,0.00,,,0.14,homebrew,2013-01-08 01:25:00,
2013-01-07 17:30:00,47.7,-99.9,30.01,SSW,209,5.5,13.3,-999,0.00,,,0.14,homebrew,2013-01-08 01:30:00,
2013-01-07 17:40:00,47.8,-99.9,30.02,SSW,208,5.4,15.6,-999,0.00,,,0.14,homebrew,2013-01-08 01:40:00,
2013-01-07 17:45:00,47.8,-99.9,30.01,SSW,207,3.6,17.8,-999,0.00,,,0.14,homebrew,2013-01-08 01:45:00,
2013-01-07 17:50:00,47.7,-99.9,30.02,SSW,211,4.8,6.7,-999,0.00,,,0.14,homebrew,2013-01-08 01:50:00,
2013-01-07 17:55:00,47.7,-99.9,30.02,SSW,207,4.9,12.3,-999,0.00,,,0.14,homebrew,2013-01-08 01:55:00,
2013-01-07 18:00:00,47.6,-99.9,30.03,SSW,202,3.9,14.4,-999,0.00,,,0.14,homebrew,2013-01-08 02:00:00,
2013-01-07 18:10:00,47.5,-99.9,30.03,SSW,206,4.0,12.0,-999,0.00,,,0.14,homebrew,2013-01-08 02:10:00,
2013-01-07 18:15:00,47.4,-99.9,30.03,SSW,207,3.9,12.2,-999,0.00,,,0.14,homebrew,2013-01-08 02:15:00,
2013-01-07 18:20:00,47.5,-99.9,30.03,SSW,210,4.7,10.3,-999,0.00,,,0.14,homebrew,2013-01-08 02:20:00,
2013-01-07 18:30:00,47.5,-99.9,30.03,SSW,201,4.0,9.3,-999,0.00,,,0.14,homebrew,2013-01-08 02:30:00,
2013-01-07 18:35:00,47.5,-99.9,30.04,SSW,204,4.6,11.6,-999,0.00,,,0.14,homebrew,2013-01-08 02:35:00,
2013-01-07 18:40:00,47.5,-99.9,30.04,SSW,211,5.3,13.2,-999,0.00,,,0.14,homebrew,2013-01-08 02:40:00,
2013-01-07 18:45:00,47.4,-99.9,30.04,SSW,203,4.1,11.9,-999,0.00,,,0.14,homebrew,2013-01-08 02:45:00,
2013-01-07 18:50:00,47.4,-99.9,30.04,SSW,205,4.2,7.6,-999,0.00,,,0.14,homebrew,2013-01-08 02:50:00,
2013-01-07 19:00:00,47.3,-99.9,30.04,SSW,208,4.3,11.4,-999,0.00,,,0.14,homebrew,2013-01-08 03:00:00,
2013-01-07 19:05:00,47.3,-99.9,30.04,SSW,203,5.0,11.3,-999,0.00,,,0.14,homebrew,2013-01-08 03:05:00,
2013-01-07 19:10:00,47.3,-99.9,30.05,SW,221,5.2,11.9,-999,0.00,,,0.14,homebrew,2013-01-08 03:10:00,
2013-01-07 19:20:00,47.2,-99.9,30.05,SSW,206,4.9,10.5,-999,0.00,,,0.14,homebrew,2013-01-08 03:20:00,
2013-01-07 19:25:00,47.2,-99.9,30.05,SSW,207,5.1,14.3,-999,0.00,,,0.14,homebrew,2013-01-08 03:25:00,
2013-01-07 19:35:00,47.1,-99.9,30.05,SW,215,4.0,11.7,-999,0.00,,,0.14,homebrew,2013-01-08 03:35:00,
2013-01-07 19:40:00,47.1,-99.9,30.06,SSW,208,4.1,9.6,-999,0.00,,,0.14,homebrew,2013-01-08 03:40:00,
2013-01-07 19:45:00,47.0,-99.9,30.05,SSW,201,3.8,10.6,-999,0.00,,,0.14,homebrew,2013-01-08 03:45:00,
2013-01-07 19:55:00,46.8,-99.9,30.04,SSW,199,4.1,8.5,-999,0.00,,,0.14,homebrew,2013-01-08 03:55:00,
2013-01-07 20:00:00,46.8,-99.9,30.05,SSW,203,4.6,8.3,-999,0.00,,,0.14,homebrew,2013-01-08 04:00:00,
2013-01-07 20:10:00,46.7,-99.9,30.05,SSW,201,5.2,14.0,-999,0.00,,,0.14,homebrew,2013-01-08 04:10:00,
2013-01-07 20:15:00,46.7,-99.9,30.06,SSW,205,4.6,10.4,-999,0.00,,,0.14,homebrew,2013-01-08 04:15:00,
2013-01-07 20:20:00,46.7,-99.9,30.06,SSW,208,4.8,14.8,-999,0.00,,,0.14,homebrew,2013-01-08 04:20:00,
2013-01-07 20:25:00,46.7,-99.9,30.07,SSW,206,4.5,9.6,-999,0.00,,,0.14,homebrew,2013-01-08 04:25:00,
2013-01-07 20:30:00,46.7,-99.9,30.06,SSW,204,3.8,13.3,-999,0.00,,,0.14,homebrew,2013-01-08 04:30:00,
2013-01-07 20:35:00,46.6,-99.9,30.06,SSW,199,4.7,10.3,-999,0.00,,,0.14,homebrew,2013-01-08 04:35:00,
2013-01-07 20:45:00,46.4,-99.9,30.07,SSW,201,4.8,12.9,-999,0.00,,,0.14,homebrew,2013-01-08 04:45:00,
2013-01-07 20:50:00,46.5,-99.9,30.07,SSW,206,4.3,17.1,-999,0.00,,,0.14,homebrew,2013-01-08 04:50:00,
2013-01-07 21:00:00,46.3,-99.9,30.08,SSW,204,2.8,6.8,-999,0.00,,,0.14,homebrew,2013-01-08 05:00:00,
2013-01-07 21:05:00,46.3,-99.9,30.08,SSW,197,4.0,9.3,-999,0.00,,,0.14,homebrew,2013-01-08 05:05:00,
2013-01-07 21:10:00,46.3,-99.9,30.08,SSW,197,4.0,8.5,-999,0.00,,,0.14,homebrew,2013-01-08 05:10:00,
2013-01-07 21:15:00,46.3,-99.9,30.08,SSW,195,4.2,11.4,-999,0.00,,,0.14,homebrew,2013-01-08 05:15:00,
2013-01-07 21:20:00,46.2,-99.9,30.08,SSW,197,5.0,9.9,-999,0.00,,,0.14,homebrew,2013-01-08 05:20:00,
2013-01-07 21:25:00,46.3,-99.9,30.09,SSW,201,3.8,10.6,-999,0.00,,,0.14,homebrew,2013-01-08 05:25:00,
2013-01-07 21:35:00,46.2,-99.9,30.09,SSW,205,4.7,10.6,-999,0.00,,,0.14,homebrew,2013-01-08 05:35:00,
2013-01-07 21:40:00,46.2,-99.9,30.09,South,188,3.4,11.0,-999,0.00,,,0.14,homebrew,2013-01-08 05:40:00,
2013-01-07 21:50:00,46.1,-99.9,30.10,SSW,198,4.2,15.8,-999,0.00,,,0.14,homebrew,2013-01-08 05:50:00,
2013-01-07 21:55:00,46.1,-99.9,30.09,SSW,198,3.8,9.8,-999,0.00,,,0.14,homebrew,2013-01-08 05:55:00,
2013-01-07 22:05:00,46.0,-99.9,30.10,SSW,192,3.4,6.8,-999,0.00,,,0.14,homebrew,2013-01-08 06:05:00,
2013-01-07 22:10:00,46.0,-99.9,30.10,SSW,195,4.2,8.5,-999,0.00,,,0.14,homebrew,2013-01-08 06:10:00,
2013-01-07 22:15:00,45.9,-99.9,30.10,SSW,203,4.0,8.0,-999,0.00,,,0.14,homebrew,2013-01-08 06:15:00,
2013-01-07 22:25:00,46.0,-99.9,30.10,SSW,202,3.1,8.1,-999,0.00,,,0.14,homebrew,2013-01-08 06:25:00,
2013-01-07 22:30:00,46.0,-99.9,30.10,South,191,4.6,8.6,-999,0.00,,,0.14,homebrew,2013-01-08 06:30:00,
2013-01-07 22:40:00,46.0,-99.9,30.10,South,186,3.4,8.9,-999,0.00,,,0.14,homebrew,2013-01-08 06:40:00,
2013-01-07 22:45:00,45.9,-99.9,30.10,SSW,201,3.4,9.1,-999,0.00,,,0.14,homebrew,2013-01-08 06:45:00,
2013-01-07 22:55:00,45.9,-99.9,30.10,SSW,197,4.4,13.0,-999,0.00,,,0.14,homebrew,2013-01-08 06:55:00,
2013-01-07 23:00:00,46.0,-99.9,30.11,SSW,202,4.1,11.6,-999,0.00,,,0.14,homebrew,2013-01-08 07:00:00,
2013-01-07 23:05:00,46.0,-99.9,30.11,SSW,198,4.7,11.2,-999,0.00,,,0.14,homebrew,2013-01-08 07:05:00,
2013-01-07 23:15:00,46.0,-99.9,30.12,SSW,192,4.9,14.4,-999,0.00,,,0.14,homebrew,2013-01-08 07:15:00,
2013-01-07 23:20:00,46.0,-99.9,30.12,SSW,195,3.3,14.1,-999,0.00,,,0.14,homebrew,2013-01-08 07:20:00,
2013-01-07 23:30:00,46.0,-99.9,30.12,SSW,194,3.1,10.7,-999,0.00,,,0.14,homebrew,2013-01-08 07:30:00,
2013-01-07 23:35:00,45.9,-99.9,30.11,SSW,197,3.2,9.7,-999,0.00,,,0.14,homebrew,2013-01-08 07:35:00,
2013-01-07 23:40:00,45.9,-99.9,30.12,SSW,204,3.1,9.3,-999,0.00,,,0.14,homebrew,2013-01-08 07:40:00,
2013-01-07 23:45:00,45.9,-99.9,30.11,SSW,195,3.8,8.5,-999,0.00,,,0.00,homebrew,2013-01-08 07:45:00,
2013-01-07 23:50:00,45.9,-99.9,30.11,SSW,192,3.3,9.8,-999,0.00,,,0.00,homebrew,2013-01-08 07:50:00,
2013-01-07 23:55:00,45.9,-99.9,30.11,SSW,204,3.5,9.7,-999,0.00,,,0.00,homebrew,2013-01-08 07:55:00,